Skip Navigation Links Skip Navigation Links

Current Weather

Boryspil, Kiev, Ukraine

For information only: do not use for flight planning or navigation.
Latest weather
Observation time Friday, February 23, 2018 4:00 AM EET
Local time Friday, February 23, 2018 4:39 AM EET
Flight conditions Marginal Visual Meteorological Conditions
Winds
Wind direction East-Northeast (70°)
Wind speed 7 mph
Visibility 3.1 mi.
Present weather light snow, mist
Sky condition
Ceiling 4,600 ft. overcast
Cloud layer overcast 4,600 ft.
Temperature 21°F
Dewpoint 18°F
Altimeter 30.21 in.Hg
Derived measurements
Relative humidity 86%
Wind chill 13°F
Density altitude -2333 ft.
Remarks
No significant changes expected in the next two hours.
METAR UKKK 230200Z 07003MPS 5000 -SN BR OVC046 M06/M08 Q1023 R08/590240 NOSIG

Settings

Location code

InnerDrive.Weather 4.0.6615.0 Release CLR 4.0.30319.42000
Copyright ©2018 Inner Drive Technology. All rights reserved. Portions Copyright ©1986-2018 David Braverman.

Find weather

Site navigation


Skip Navigation Links

Place info

Page info

PayPal - The safer, easier way to pay online!

Return home.

Copyright ©2018 Inner Drive Technology. Purveyors of fine, hand-crafted computer software. Page printed 2018-02-23T02:39:05 UTC.